CYPG

Portage La Prairie Airport

Portage, , Canada
METAR CYPG 182300Z 31003KT 15SM BKN240 M25/M30 A3052 RMK CI6 LAST OBS/NEXT 211200 UTC SLP373
Observed Flight Rules
Jan-18 @ 23:00 UTC (18 hours ago) Visual Flight Rules
Wind Visibility Clouds
310° at 3 knots 15 miles
  • Broken at 24,000' AGL
Temperatures Readings
Current -25°C / -13°F
Dewpoint -30°C / -22°F
Humidity 63%
Altimeter 30.52" Hg
Pressure 1037.3 hPa
Elevation 269
METAR CYPG 182300Z 31003KT 15SM BKN240 M25/M30 A3052 RMK CI6 LAST OBS/NEXT 211200 UTC SLP373
Observed Flight Rules
Jan-18 @ 23:00 UTC
(18 hours ago)
VFR
Wind Visibility
310° at 3 knots 15 miles
Clouds
  • Broken at 24,000' AGL
Temperature Dewpoint
-25°C / -13°F -30°C / -22°F
Humidity Altimeter Pressure
63% 30.52" Hg 1037.3 hPa